createdAt,value
2023-01-18T00:02:04.206Z,88.29
2023-01-18T00:04:30.719Z,88.14
2023-01-18T00:06:57.302Z,88.33
2023-01-18T00:09:23.921Z,88.29
2023-01-18T00:11:50.411Z,88.53
2023-01-18T00:14:16.948Z,88.48
2023-01-18T00:16:43.433Z,88.28
2023-01-18T00:19:13.089Z,88.71
2023-01-18T00:21:40.305Z,88.81
2023-01-18T00:24:10.921Z,89.20
2023-01-18T00:26:37.910Z,89.05
2023-01-18T00:29:05.078Z,88.86
2023-01-18T00:31:32.289Z,89.42
2023-01-18T00:33:58.772Z,89.09
2023-01-18T00:36:25.311Z,89.00
2023-01-18T00:38:52.599Z,88.75
2023-01-18T00:41:20.470Z,89.04
2023-01-18T00:43:47.115Z,89.37
2023-01-18T00:46:19.017Z,89.46
2023-01-18T00:48:45.459Z,89.25
2023-01-18T00:51:15.025Z,88.91
2023-01-18T00:53:44.064Z,88.62
2023-01-18T00:56:13.011Z,88.98
2023-01-18T00:58:39.532Z,89.12
2023-01-18T01:01:07.896Z,89.32
2023-01-18T01:03:54.565Z,88.97
2023-01-18T01:06:44.966Z,89.61
2023-01-18T01:09:17.355Z,89.19
2023-01-18T01:12:04.715Z,89.22
2023-01-18T01:14:51.564Z,89.35
2023-01-18T01:17:36.943Z,89.29
2023-01-18T01:20:23.047Z,89.16
2023-01-18T01:23:08.356Z,89.03
2023-01-18T01:25:55.502Z,89.24
2023-01-18T01:28:22.095Z,89.16
2023-01-18T01:30:48.616Z,89.26
2023-01-18T01:33:17.179Z,89.62
2023-01-18T01:35:44.299Z,89.37
2023-01-18T01:38:10.834Z,89.05
2023-01-18T01:40:37.309Z,89.61
2023-01-18T01:43:03.827Z,89.66
2023-01-18T01:45:32.106Z,89.66
2023-01-18T01:47:59.373Z,89.39
2023-01-18T01:50:36.600Z,89.13
2023-01-18T01:53:03.839Z,89.28
2023-01-18T01:55:33.647Z,88.83
2023-01-18T01:58:22.690Z,89.57
2023-01-18T02:00:49.329Z,89.06
2023-01-18T02:03:20.240Z,89.25
2023-01-18T02:05:51.332Z,89.71
2023-01-18T02:08:22.305Z,89.58
2023-01-18T02:10:49.963Z,89.34
2023-01-18T02:13:17.902Z,89.49
2023-01-18T02:15:52.601Z,89.94
2023-01-18T02:18:26.830Z,89.58
2023-01-18T02:21:10.679Z,89.60
2023-01-18T02:23:55.759Z,89.26
2023-01-18T02:26:59.454Z,89.75
2023-01-18T02:29:44.568Z,90.07
2023-01-18T02:32:21.844Z,90.33
2023-01-18T02:34:51.516Z,89.77
2023-01-18T02:37:34.731Z,89.97
2023-01-18T02:40:21.449Z,89.86
2023-01-18T02:43:07.696Z,90.19
2023-01-18T02:46:05.650Z,90.08
2023-01-18T02:48:37.958Z,90.15
2023-01-18T02:51:05.413Z,90.47
2023-01-18T02:53:35.952Z,90.26
2023-01-18T02:56:11.287Z,90.34
2023-01-18T02:58:53.785Z,89.95
2023-01-18T03:01:29.455Z,90.28
2023-01-18T03:04:01.459Z,90.04
2023-01-18T03:06:29.039Z,90.00
2023-01-18T03:08:56.968Z,89.73
2023-01-18T03:11:23.371Z,89.94
2023-01-18T03:13:57.768Z,90.07
2023-01-18T03:16:30.313Z,90.38
2023-01-18T03:19:40.778Z,90.09
2023-01-18T03:22:07.280Z,90.21
2023-01-18T03:24:41.061Z,90.56
2023-01-18T03:27:27.757Z,90.80
2023-01-18T03:30:13.633Z,90.33
2023-01-18T03:32:59.908Z,90.57
2023-01-18T03:35:28.598Z,90.39
2023-01-18T03:37:58.397Z,90.26
2023-01-18T03:40:29.009Z,90.15
2023-01-18T03:43:05.739Z,90.67
2023-01-18T03:45:48.191Z,90.54
2023-01-18T03:48:15.642Z,90.58
2023-01-18T03:51:00.757Z,90.37
2023-01-18T03:53:35.035Z,90.02
2023-01-18T03:56:06.879Z,90.44
2023-01-18T03:58:36.520Z,90.37
2023-01-18T04:01:04.435Z,90.21
2023-01-18T04:03:34.453Z,90.33
2023-01-18T04:06:04.242Z,90.65
2023-01-18T04:08:30.938Z,90.78
2023-01-18T04:10:57.436Z,90.80
2023-01-18T04:13:24.041Z,90.68
2023-01-18T04:15:50.562Z,90.44
2023-01-18T04:18:17.126Z,90.71
2023-01-18T04:20:43.645Z,90.80
2023-01-18T04:23:10.194Z,90.87
2023-01-18T04:25:38.335Z,90.49
2023-01-18T04:28:05.252Z,91.10
2023-01-18T04:30:31.843Z,90.91
2023-01-18T04:32:58.631Z,90.48
2023-01-18T04:35:25.313Z,90.64
2023-01-18T04:37:52.857Z,90.79
2023-01-18T04:40:19.467Z,90.75
2023-01-18T04:42:53.075Z,90.72
2023-01-18T04:45:20.129Z,90.98
2023-01-18T04:47:46.787Z,90.94
2023-01-18T04:50:13.353Z,91.26
2023-01-18T04:52:39.876Z,91.25
2023-01-18T04:55:06.975Z,90.97
2023-01-18T04:57:33.563Z,91.08
2023-01-18T05:00:02.125Z,91.29
2023-01-18T05:02:28.762Z,91.69
2023-01-18T05:04:55.685Z,91.58
2023-01-18T05:07:25.148Z,90.98
2023-01-18T05:09:52.132Z,91.30
2023-01-18T05:12:18.675Z,91.06
2023-01-18T05:14:45.222Z,91.53
2023-01-18T05:17:11.708Z,90.99
2023-01-18T05:19:39.052Z,91.54
2023-01-18T05:22:05.646Z,91.24
2023-01-18T05:24:32.571Z,91.63
2023-01-18T05:26:59.145Z,91.33
2023-01-18T05:29:25.677Z,91.22
2023-01-18T05:31:54.986Z,91.25
2023-01-18T05:34:21.581Z,91.33
2023-01-18T05:36:48.637Z,91.60
2023-01-18T05:39:15.217Z,91.51
2023-01-18T05:41:41.754Z,91.98
2023-01-18T05:44:09.614Z,91.84
2023-01-18T05:46:36.324Z,91.57
2023-01-18T05:49:02.919Z,91.56
2023-01-18T05:51:29.644Z,91.41
2023-01-18T05:53:56.136Z,91.58
2023-01-18T05:56:22.906Z,91.32
2023-01-18T05:58:49.751Z,91.56
2023-01-18T06:01:16.342Z,91.84
2023-01-18T06:03:42.874Z,92.07
2023-01-18T06:06:09.441Z,91.78
2023-01-18T06:08:36.030Z,92.05
2023-01-18T06:11:03.231Z,91.82
2023-01-18T06:13:31.361Z,91.70
2023-01-18T06:15:59.472Z,91.83
2023-01-18T06:18:30.261Z,92.09
2023-01-18T06:21:00.230Z,92.10
2023-01-18T06:23:28.604Z,91.53
2023-01-18T06:25:55.157Z,91.72
2023-01-18T06:28:22.550Z,92.08
2023-01-18T06:30:52.716Z,92.04
2023-01-18T06:33:19.282Z,91.52
2023-01-18T06:35:45.787Z,91.64
2023-01-18T06:38:13.256Z,91.83
2023-01-18T06:40:39.776Z,92.04
2023-01-18T06:43:08.432Z,91.57
2023-01-18T06:45:35.356Z,91.96
2023-01-18T06:48:02.042Z,91.53
2023-01-18T06:50:28.564Z,91.55
2023-01-18T06:52:56.029Z,91.33
2023-01-18T06:55:22.768Z,91.48
2023-01-18T06:57:49.324Z,91.98
2023-01-18T07:00:18.873Z,91.65
2023-01-18T07:02:45.352Z,91.37
2023-01-18T07:05:11.811Z,91.47
2023-01-18T07:07:38.344Z,92.45
2023-01-18T07:10:05.224Z,91.97
2023-01-18T07:12:31.806Z,92.17
2023-01-18T07:14:58.380Z,92.07
2023-01-18T07:17:24.937Z,92.05
2023-01-18T07:19:51.462Z,92.08
2023-01-18T07:22:17.976Z,92.09
2023-01-18T07:24:45.629Z,91.76
2023-01-18T07:27:12.307Z,92.27
2023-01-18T07:29:38.843Z,92.05
2023-01-18T07:32:05.455Z,91.74
2023-01-18T07:34:32.140Z,92.25
2023-01-18T07:36:58.745Z,92.12
2023-01-18T07:39:25.257Z,92.25
2023-01-18T07:41:51.775Z,92.59
2023-01-18T07:44:18.797Z,92.76
2023-01-18T07:46:45.729Z,92.27
2023-01-18T07:49:12.276Z,92.35
2023-01-18T07:51:38.817Z,91.77
2023-01-18T07:54:05.378Z,91.88
2023-01-18T07:56:31.917Z,92.02
2023-01-18T07:58:58.425Z,91.75
2023-01-18T08:01:25.300Z,91.86
2023-01-18T08:03:53.503Z,92.19
2023-01-18T08:06:24.577Z,92.54
2023-01-18T08:08:51.752Z,92.40
2023-01-18T08:11:19.357Z,92.65
2023-01-18T08:13:46.473Z,92.38
2023-01-18T08:16:13.022Z,92.48
2023-01-18T08:18:40.023Z,92.80
2023-01-18T08:21:11.095Z,92.13
2023-01-18T08:23:39.032Z,91.99
2023-01-18T08:26:06.666Z,92.43
2023-01-18T08:28:34.045Z,92.91
2023-01-18T08:31:24.895Z,92.39
2023-01-18T08:33:52.746Z,92.34
2023-01-18T08:36:21.935Z,92.36
2023-01-18T08:38:53.707Z,92.70
2023-01-18T08:41:20.704Z,92.75
2023-01-18T08:43:51.000Z,92.91
2023-01-18T08:46:18.355Z,92.76
2023-01-18T08:48:44.920Z,92.51
2023-01-18T08:51:11.650Z,92.63
2023-01-18T08:53:38.211Z,92.98
2023-01-18T08:56:06.729Z,92.90
2023-01-18T08:58:33.424Z,93.06
2023-01-18T09:00:59.966Z,92.44
2023-01-18T09:03:26.547Z,92.42
2023-01-18T09:05:53.030Z,92.73
2023-01-18T09:08:19.610Z,93.05
2023-01-18T09:10:46.143Z,92.87
2023-01-18T09:13:12.688Z,93.27
2023-01-18T09:15:39.347Z,93.35
2023-01-18T09:18:08.063Z,93.07
2023-01-18T09:20:36.124Z,93.15
2023-01-18T09:23:07.589Z,92.86
2023-01-18T09:25:36.350Z,93.13
2023-01-18T09:28:05.013Z,93.61
2023-01-18T09:30:32.192Z,93.42
2023-01-18T09:32:59.113Z,93.20
2023-01-18T09:35:26.046Z,93.40
2023-01-18T09:37:54.104Z,94.16
2023-01-18T09:40:22.624Z,94.18
2023-01-18T09:42:51.630Z,94.13
2023-01-18T09:45:32.098Z,93.89
2023-01-18T09:48:05.768Z,93.55
2023-01-18T09:50:41.778Z,93.61
2023-01-18T09:53:26.199Z,93.51
2023-01-18T09:56:00.569Z,94.16
2023-01-18T09:59:04.561Z,94.12
2023-01-18T10:01:35.811Z,94.40
2023-01-18T10:04:18.793Z,93.98
2023-01-18T10:06:50.854Z,94.50
2023-01-18T10:09:41.753Z,94.66
2023-01-18T10:12:46.330Z,94.44
2023-01-18T10:15:26.587Z,94.79
2023-01-18T10:17:57.589Z,94.82
2023-01-18T10:20:45.439Z,94.52
2023-01-18T10:23:22.906Z,94.84
2023-01-18T10:25:53.269Z,94.83
2023-01-18T10:28:33.440Z,94.56
2023-01-18T10:31:20.634Z,95.00
2023-01-18T10:33:48.520Z,94.95
2023-01-18T10:36:20.747Z,94.98
2023-01-18T10:38:49.728Z,94.99
2023-01-18T10:41:32.085Z,94.95
2023-01-18T10:43:58.685Z,95.09
2023-01-18T10:46:26.374Z,95.07
2023-01-18T10:48:54.917Z,94.92
2023-01-18T10:51:38.728Z,94.86
2023-01-18T10:54:23.410Z,95.17
2023-01-18T10:57:01.682Z,95.22
2023-01-18T10:59:35.791Z,94.87
2023-01-18T11:02:03.483Z,94.89
2023-01-18T11:04:32.343Z,94.90
2023-01-18T11:07:01.119Z,94.67
2023-01-18T11:09:43.401Z,94.71
2023-01-18T11:12:38.721Z,94.63
2023-01-18T11:15:14.297Z,94.50
2023-01-18T11:17:58.383Z,94.35
2023-01-18T11:20:48.156Z,94.22
2023-01-18T11:23:29.704Z,94.30
2023-01-18T11:26:13.395Z,94.07
2023-01-18T11:28:56.781Z,94.25
2023-01-18T11:31:25.669Z,94.27
2023-01-18T11:33:58.935Z,94.20
2023-01-18T11:36:43.348Z,94.11
2023-01-18T11:39:28.327Z,93.91
2023-01-18T11:42:17.907Z,93.69
2023-01-18T11:45:19.548Z,93.98
2023-01-18T11:48:03.951Z,93.93
2023-01-18T11:50:52.589Z,93.79
2023-01-18T11:53:41.428Z,93.94
2023-01-18T11:56:31.174Z,93.50
2023-01-18T11:58:58.249Z,93.62
2023-01-18T12:02:00.811Z,94.01
2023-01-18T12:04:54.625Z,93.09
2023-01-18T12:07:47.755Z,92.74
2023-01-18T12:10:23.499Z,92.12
2023-01-18T12:12:52.651Z,91.31
2023-01-18T12:15:24.797Z,90.75
2023-01-18T12:18:13.483Z,90.73
2023-01-18T12:21:07.081Z,89.95
2023-01-18T12:24:19.705Z,90.26
2023-01-18T12:26:49.852Z,91.12
2023-01-18T12:29:43.616Z,89.69
2023-01-18T12:32:50.488Z,89.00
2023-01-18T12:35:47.312Z,89.11
2023-01-18T12:38:31.175Z,88.33
2023-01-18T12:40:57.690Z,88.42
2023-01-18T12:43:42.696Z,88.08
2023-01-18T12:46:15.682Z,87.46
2023-01-18T12:48:42.166Z,86.50
2023-01-18T12:51:14.768Z,85.60
2023-01-18T12:53:53.416Z,85.27
2023-01-18T12:56:27.536Z,85.12
2023-01-18T12:58:59.529Z,84.90
2023-01-18T13:01:27.122Z,86.73
2023-01-18T13:04:11.368Z,84.83
2023-01-18T13:06:39.566Z,84.33
2023-01-18T13:09:12.563Z,83.85
2023-01-18T13:11:42.182Z,83.19
2023-01-18T13:14:09.365Z,84.02
2023-01-18T13:16:48.259Z,84.16
2023-01-18T13:19:24.824Z,84.20
2023-01-18T13:22:02.296Z,83.42
2023-01-18T13:24:54.926Z,83.18
2023-01-18T13:27:21.728Z,82.96
2023-01-18T13:29:48.461Z,83.29
2023-01-18T13:32:29.831Z,83.10
2023-01-18T13:35:20.655Z,82.72
2023-01-18T13:37:57.765Z,82.39
2023-01-18T13:40:30.872Z,81.47
2023-01-18T13:42:57.533Z,82.08
2023-01-18T13:45:26.947Z,81.99
2023-01-18T13:48:07.488Z,81.57
2023-01-18T13:50:39.847Z,80.40
2023-01-18T13:53:12.622Z,80.69
2023-01-18T13:55:47.916Z,80.28
2023-01-18T13:58:28.226Z,80.00
2023-01-18T14:00:58.578Z,80.58
2023-01-18T14:03:31.555Z,79.62
2023-01-18T14:06:04.743Z,79.40
2023-01-18T14:08:32.767Z,79.39
2023-01-18T14:11:04.511Z,79.13
2023-01-18T14:13:50.882Z,79.61
2023-01-18T14:16:36.203Z,79.21
2023-01-18T14:19:18.585Z,78.34
2023-01-18T14:22:07.314Z,78.21
2023-01-18T14:25:00.567Z,78.73
2023-01-18T14:27:33.089Z,76.98
2023-01-18T14:30:08.389Z,77.26
2023-01-18T14:32:43.835Z,77.91
2023-01-18T14:35:20.922Z,78.24
2023-01-18T14:37:47.447Z,77.81
2023-01-18T14:40:19.088Z,77.20
2023-01-18T14:42:52.790Z,76.38
2023-01-18T14:45:27.287Z,77.17
2023-01-18T14:47:59.377Z,76.85
2023-01-18T14:50:27.216Z,78.86
2023-01-18T14:52:54.161Z,77.12
2023-01-18T14:55:33.275Z,77.51
2023-01-18T14:58:15.733Z,77.04
2023-01-18T15:00:51.787Z,77.14
2023-01-18T15:03:26.224Z,76.82
2023-01-18T15:06:06.371Z,76.88
2023-01-18T15:08:34.460Z,77.17
2023-01-18T15:11:04.949Z,77.68
2023-01-18T15:13:32.699Z,77.91
2023-01-18T15:16:02.133Z,78.04
2023-01-18T15:18:29.711Z,78.51
2023-01-18T15:21:11.892Z,78.28
2023-01-18T15:23:38.747Z,78.65
2023-01-18T15:26:06.114Z,79.50
2023-01-18T15:28:36.472Z,79.69
2023-01-18T15:31:15.789Z,79.61
2023-01-18T15:33:43.208Z,80.32
2023-01-18T15:36:10.420Z,80.52
2023-01-18T15:38:37.213Z,80.46
2023-01-18T15:41:05.374Z,80.64
2023-01-18T15:43:41.882Z,81.25
2023-01-18T15:46:10.921Z,80.95
2023-01-18T15:48:53.279Z,81.56
2023-01-18T15:51:22.511Z,82.06
2023-01-18T15:53:55.896Z,81.82
2023-01-18T15:56:26.488Z,82.00
2023-01-18T15:58:58.035Z,82.36
2023-01-18T16:01:29.217Z,83.00
2023-01-18T16:03:55.892Z,83.09
2023-01-18T16:06:22.464Z,83.61
2023-01-18T16:08:57.628Z,84.04
2023-01-18T16:11:34.010Z,84.06
2023-01-18T16:14:07.538Z,84.36
2023-01-18T16:16:39.101Z,84.63
2023-01-18T16:19:11.090Z,84.49
2023-01-18T16:21:41.813Z,84.60
2023-01-18T16:24:26.267Z,85.04
2023-01-18T16:26:53.966Z,85.27
2023-01-18T16:29:20.797Z,85.41
2023-01-18T16:31:48.254Z,85.50
2023-01-18T16:34:24.301Z,85.82
2023-01-18T16:36:52.486Z,86.20
2023-01-18T16:39:20.337Z,86.37
2023-01-18T16:41:52.491Z,86.64
2023-01-18T16:44:20.066Z,86.38
2023-01-18T16:46:47.799Z,86.76
2023-01-18T16:49:15.109Z,86.78
2023-01-18T16:51:41.750Z,87.11
2023-01-18T16:54:08.811Z,87.21
2023-01-18T16:56:35.668Z,87.25
2023-01-18T16:59:14.031Z,87.46
2023-01-18T17:01:41.196Z,87.23
2023-01-18T17:04:09.713Z,87.56
2023-01-18T17:06:36.218Z,87.46
2023-01-18T17:09:02.941Z,87.52
2023-01-18T17:11:29.460Z,87.51
2023-01-18T17:13:55.919Z,87.67
2023-01-18T17:16:22.662Z,87.89
2023-01-18T17:18:49.715Z,87.75
2023-01-18T17:21:16.330Z,87.90
2023-01-18T17:23:42.865Z,87.71
2023-01-18T17:26:14.247Z,87.97
2023-01-18T17:28:40.722Z,88.09
2023-01-18T17:31:08.420Z,88.28
2023-01-18T17:33:39.117Z,88.12
2023-01-18T17:36:06.319Z,88.41
2023-01-18T17:38:34.085Z,88.25
2023-01-18T17:41:00.792Z,88.28
2023-01-18T17:43:34.950Z,88.32
2023-01-18T17:46:05.887Z,88.41
2023-01-18T17:48:32.531Z,88.04
2023-01-18T17:50:59.169Z,88.53
2023-01-18T17:53:25.963Z,88.38
2023-01-18T17:55:52.657Z,88.16
2023-01-18T17:58:19.119Z,88.41
2023-01-18T18:00:45.662Z,88.40
2023-01-18T18:03:13.028Z,88.70
2023-01-18T18:05:39.655Z,88.86
2023-01-18T18:08:07.086Z,88.63
2023-01-18T18:10:33.585Z,88.92
2023-01-18T18:13:00.475Z,88.74
2023-01-18T18:15:27.272Z,88.51
2023-01-18T18:17:53.803Z,88.68
2023-01-18T18:20:22.143Z,88.90
2023-01-18T18:22:49.300Z,88.51
2023-01-18T18:25:15.921Z,88.64
2023-01-18T18:27:46.795Z,88.74
2023-01-18T18:30:14.146Z,88.61
2023-01-18T18:32:40.652Z,88.95
2023-01-18T18:35:23.260Z,89.17
2023-01-18T18:37:51.400Z,89.27
2023-01-18T18:40:18.778Z,89.03
2023-01-18T18:42:56.486Z,88.86
2023-01-18T18:45:28.227Z,89.19
2023-01-18T18:47:54.821Z,89.01
2023-01-18T18:50:22.297Z,89.23
2023-01-18T18:52:48.914Z,89.25
2023-01-18T18:55:15.502Z,89.41
2023-01-18T18:57:42.035Z,89.46
2023-01-18T19:00:09.278Z,89.31
2023-01-18T19:02:36.010Z,89.88
2023-01-18T19:05:02.578Z,89.62
2023-01-18T19:07:29.230Z,89.62
2023-01-18T19:09:55.721Z,89.76
2023-01-18T19:12:22.290Z,90.07
2023-01-18T19:14:48.884Z,90.21
2023-01-18T19:17:25.155Z,90.05
2023-01-18T19:19:56.260Z,90.21
2023-01-18T19:22:22.998Z,90.27
2023-01-18T19:24:49.463Z,90.50
2023-01-18T19:27:16.444Z,90.66
2023-01-18T19:29:43.169Z,90.51
2023-01-18T19:32:09.979Z,90.73
2023-01-18T19:34:38.400Z,90.76
2023-01-18T19:37:05.253Z,91.05
2023-01-18T19:39:34.617Z,90.71
2023-01-18T19:42:01.914Z,90.97
2023-01-18T19:44:28.467Z,91.23
2023-01-18T19:46:56.786Z,91.45
2023-01-18T19:49:26.208Z,91.67
2023-01-18T19:51:54.231Z,91.89
2023-01-18T19:54:20.805Z,91.78
2023-01-18T19:56:47.310Z,92.11
2023-01-18T19:59:14.985Z,92.43
2023-01-18T20:01:41.775Z,92.48
2023-01-18T20:04:08.714Z,92.48
2023-01-18T20:06:37.381Z,92.62
2023-01-18T20:09:07.534Z,93.10
2023-01-18T20:11:39.313Z,93.01
2023-01-18T20:14:05.878Z,93.12
2023-01-18T20:16:32.463Z,93.00
2023-01-18T20:18:58.986Z,93.35
2023-01-18T20:21:25.527Z,93.28
2023-01-18T20:23:52.002Z,93.50
2023-01-18T20:26:31.083Z,93.09
2023-01-18T20:29:02.750Z,93.55
2023-01-18T20:31:29.465Z,93.72
2023-01-18T20:33:56.080Z,94.10
2023-01-18T20:36:22.642Z,94.30
2023-01-18T20:38:49.424Z,94.29
2023-01-18T20:41:16.009Z,94.64
2023-01-18T20:43:42.919Z,94.73
2023-01-18T20:46:11.431Z,94.74
2023-01-18T20:48:38.602Z,94.93
2023-01-18T20:51:07.316Z,95.04
2023-01-18T20:53:34.499Z,95.34
2023-01-18T20:56:02.042Z,95.77
2023-01-18T20:58:29.260Z,95.82
2023-01-18T21:00:55.886Z,96.21
2023-01-18T21:03:22.605Z,96.25
2023-01-18T21:05:49.141Z,96.28
2023-01-18T21:08:17.352Z,96.41
2023-01-18T21:10:43.911Z,96.56
2023-01-18T21:13:11.460Z,96.83
2023-01-18T21:15:39.047Z,96.79
2023-01-18T21:18:06.486Z,96.93
2023-01-18T21:20:33.232Z,96.94
2023-01-18T21:23:01.128Z,96.86
2023-01-18T21:25:29.612Z,97.10
2023-01-18T21:27:58.019Z,97.26
2023-01-18T21:30:24.918Z,97.24
2023-01-18T21:32:51.455Z,97.35
2023-01-18T21:35:18.762Z,97.10
2023-01-18T21:37:45.242Z,97.18
2023-01-18T21:40:12.254Z,97.85
2023-01-18T21:42:57.356Z,97.81
2023-01-18T21:45:42.157Z,97.92
2023-01-18T21:48:14.206Z,97.77
2023-01-18T21:50:59.321Z,97.60
2023-01-18T21:53:44.269Z,97.67
2023-01-18T21:56:10.840Z,97.54
2023-01-18T21:58:56.098Z,97.83
2023-01-18T22:01:34.065Z,97.34
2023-01-18T22:04:21.569Z,97.85
2023-01-18T22:06:48.292Z,98.19
2023-01-18T22:09:15.057Z,98.21
2023-01-18T22:11:42.233Z,98.35
2023-01-18T22:14:09.435Z,98.02
2023-01-18T22:16:36.418Z,98.41
2023-01-18T22:19:04.820Z,98.43
2023-01-18T22:21:32.489Z,98.63
2023-01-18T22:23:59.640Z,98.38
2023-01-18T22:26:28.427Z,98.71
2023-01-18T22:28:54.970Z,99.45
2023-01-18T22:31:21.791Z,99.69
2023-01-18T22:33:48.672Z,99.63
2023-01-18T22:36:15.942Z,99.81
2023-01-18T22:38:43.795Z,99.76
2023-01-18T22:41:18.798Z,100.00
2023-01-18T22:43:46.097Z,100.00
2023-01-18T22:46:15.385Z,100.00
2023-01-18T22:48:43.588Z,100.00
2023-01-18T22:51:13.401Z,100.00
2023-01-18T22:53:40.147Z,100.00
2023-01-18T22:56:10.073Z,100.00
2023-01-18T22:58:36.922Z,100.00
2023-01-18T23:01:12.963Z,100.00
2023-01-18T23:03:39.462Z,100.00
2023-01-18T23:06:06.017Z,100.00
2023-01-18T23:08:42.443Z,100.00
2023-01-18T23:11:14.652Z,100.00
2023-01-18T23:13:43.247Z,100.00
2023-01-18T23:16:31.978Z,100.00
2023-01-18T23:18:59.216Z,100.00
2023-01-18T23:21:25.743Z,100.00
2023-01-18T23:23:52.229Z,100.00
2023-01-18T23:26:18.784Z,100.00
2023-01-18T23:28:45.306Z,100.00
2023-01-18T23:31:14.836Z,100.00
2023-01-18T23:33:41.728Z,100.00
2023-01-18T23:36:10.544Z,100.00
2023-01-18T23:38:56.265Z,100.00
2023-01-18T23:41:41.985Z,100.00
2023-01-18T23:44:26.916Z,100.00
2023-01-18T23:47:12.099Z,100.00
2023-01-18T23:49:57.441Z,100.00
2023-01-18T23:52:42.879Z,100.00
2023-01-18T23:55:09.961Z,100.00
2023-01-18T23:57:36.833Z,100.00
